This is the latest recevied weather packets stored in our database for station/object BM1CCR-13. If no packets are shown the sender has not sent any weather packets the latest 10 day(s).
| Time | Temp. | Humidity | Pressure | Rain* | Wind** | Luminosity | Snow |
|---|---|---|---|---|---|---|---|
| 1777708465 | 26.67° C | 72% | 999.6 hPa | 0 mm | - | - | - |
| 1777708175 | 26.67° C | 70% | 999.5 hPa | 0 mm | - | - | - |
| 1777708165 | 26.67° C | 70% | 999.6 hPa | 0 mm | - | - | - |
| 1777707876 | 26.67° C | 69% | 999.5 hPa | 0 mm | - | - | - |
| 1777707864 | 26.67° C | 69% | 999.4 hPa | 0 mm | - | - | - |
| 1777707565 | 26.67° C | 67% | 999.4 hPa | 0 mm | - | - | - |
| 1777707263 | 27.78° C | 67% | 999.5 hPa | 0 mm | - | - | - |
| 1777706963 | 27.78° C | 66% | 999.5 hPa | 0 mm | - | - | - |
| 1777706675 | 27.78° C | 63% | 999.5 hPa | 0 mm | - | - | - |
| 1777706663 | 27.78° C | 63% | 999.4 hPa | 0 mm | - | - | - |
| 1777706374 | 28.89° C | 62% | 999.6 hPa | 0 mm | - | - | - |
| 1777706364 | 28.89° C | 61% | 999.6 hPa | 0 mm | - | - | - |
| 1777706074 | 30° C | 59% | 999.5 hPa | 0 mm | - | - | - |
| 1777706064 | 30° C | 59% | 999.6 hPa | 0 mm | - | - | - |
| 1777705775 | 30° C | 59% | 999.6 hPa | 0 mm | - | - | - |
| 1777705763 | 30° C | 59% | 999.7 hPa | 0 mm | - | - | - |
| 1777705463 | 30° C | 57% | 999.7 hPa | 0 mm | - | - | - |
| 1777705163 | 30° C | 55% | 999.7 hPa | 0 mm | - | - | - |
| 1777704863 | 31.67° C | 51% | 999.7 hPa | 0 mm | - | - | - |
| 1777704563 | 30.56° C | 52% | 999.7 hPa | 0 mm | - | - | - |
| 1777704275 | 32.78° C | 48% | 999.6 hPa | 0 mm | - | - | - |
| 1777704263 | 32.78° C | 48% | 999.7 hPa | 0 mm | - | - | - |
| 1777703962 | 33.89° C | 46% | 999.7 hPa | 0 mm | - | - | - |
| 1777703663 | 32.78° C | 46% | 999.7 hPa | 0 mm | - | - | - |
| 1777703362 | 33.89° C | 47% | 999.8 hPa | 0 mm | - | - | - |
* Rain latest hour (hover to see other rain measurements)
** Current wind speed in m/s (hover to see current wind gust speed)